sensor_id;sensor_type;location;lat;lon;timestamp;temperature;humidity
14401;DHT22;7285;50.894;5.462;2023-04-29T00:00:49;11.70;1.00
14401;DHT22;7285;50.894;5.462;2023-04-29T00:03:16;11.60;99.90
14401;DHT22;7285;50.894;5.462;2023-04-29T00:05:45;11.60;99.90
14401;DHT22;7285;50.894;5.462;2023-04-29T00:08:12;11.60;1.00
14401;DHT22;7285;50.894;5.462;2023-04-29T00:10:39;11.60;1.00
14401;DHT22;7285;50.894;5.462;2023-04-29T00:13:06;11.60;1.00
14401;DHT22;7285;50.894;5.462;2023-04-29T00:15:33;11.50;91.30
14401;DHT22;7285;50.894;5.462;2023-04-29T00:18:02;11.50;99.90
14401;DHT22;7285;50.894;5.462;2023-04-29T00:20:29;11.50;99.90
14401;DHT22;7285;50.894;5.462;2023-04-29T00:22:57;11.50;1.00
14401;DHT22;7285;50.894;5.462;2023-04-29T00:25:24;11.50;1.00
14401;DHT22;7285;50.894;5.462;2023-04-29T00:27:51;11.40;1.00
14401;DHT22;7285;50.894;5.462;2023-04-29T00:30:18;11.50;99.90
14401;DHT22;7285;50.894;5.462;2023-04-29T00:32:45;11.40;99.90
14401;DHT22;7285;50.894;5.462;2023-04-29T00:35:12;11.40;1.00
14401;DHT22;7285;50.894;5.462;2023-04-29T00:37:39;11.40;1.00
14401;DHT22;7285;50.894;5.462;2023-04-29T00:40:09;11.40;34.70
14401;DHT22;7285;50.894;5.462;2023-04-29T00:42:40;11.40;99.90
14401;DHT22;7285;50.894;5.462;2023-04-29T00:45:08;11.40;99.90
14401;DHT22;7285;50.894;5.462;2023-04-29T00:47:36;11.40;1.00
14401;DHT22;7285;50.894;5.462;2023-04-29T00:50:04;11.40;99.90
14401;DHT22;7285;50.894;5.462;2023-04-29T00:52:31;11.30;1.00
14401;DHT22;7285;50.894;5.462;2023-04-29T00:54:59;11.30;1.00
14401;DHT22;7285;50.894;5.462;2023-04-29T00:57:27;11.20;99.90
14401;DHT22;7285;50.894;5.462;2023-04-29T00:59:55;11.20;1.00
14401;DHT22;7285;50.894;5.462;2023-04-29T01:02:23;11.10;1.00
14401;DHT22;7285;50.894;5.462;2023-04-29T01:04:50;11.10;1.00
14401;DHT22;7285;50.894;5.462;2023-04-29T01:07:20;11.10;99.90
14401;DHT22;7285;50.894;5.462;2023-04-29T01:09:57;11.10;99.90
14401;DHT22;7285;50.894;5.462;2023-04-29T01:12:32;11.00;1.00
14401;DHT22;7285;50.894;5.462;2023-04-29T01:15:04;11.00;1.00
14401;DHT22;7285;50.894;5.462;2023-04-29T01:17:37;10.90;99.90
14401;DHT22;7285;50.894;5.462;2023-04-29T01:20:06;10.80;99.90
14401;DHT22;7285;50.894;5.462;2023-04-29T01:22:34;10.80;99.90
14401;DHT22;7285;50.894;5.462;2023-04-29T01:25:05;10.80;99.90
14401;DHT22;7285;50.894;5.462;2023-04-29T01:27:36;10.80;99.90
14401;DHT22;7285;50.894;5.462;2023-04-29T01:30:09;10.80;1.00
14401;DHT22;7285;50.894;5.462;2023-04-29T01:32:45;10.80;1.00
14401;DHT22;7285;50.894;5.462;2023-04-29T01:35:35;10.80;1.00
14401;DHT22;7285;50.894;5.462;2023-04-29T01:38:16;10.80;1.00
14401;DHT22;7285;50.894;5.462;2023-04-29T01:40:47;10.70;1.00
14401;DHT22;7285;50.894;5.462;2023-04-29T01:43:22;10.70;1.00
14401;DHT22;7285;50.894;5.462;2023-04-29T01:45:52;10.70;36.40
14401;DHT22;7285;50.894;5.462;2023-04-29T01:48:21;10.60;1.00
14401;DHT22;7285;50.894;5.462;2023-04-29T01:50:48;10.60;1.00
14401;DHT22;7285;50.894;5.462;2023-04-29T01:53:15;10.60;1.00
14401;DHT22;7285;50.894;5.462;2023-04-29T01:55:42;10.60;1.00
14401;DHT22;7285;50.894;5.462;2023-04-29T01:58:10;10.60;1.00
14401;DHT22;7285;50.894;5.462;2023-04-29T02:00:37;10.60;99.90
14401;DHT22;7285;50.894;5.462;2023-04-29T02:03:04;10.60;99.90
14401;DHT22;7285;50.894;5.462;2023-04-29T02:05:31;10.60;99.90
14401;DHT22;7285;50.894;5.462;2023-04-29T02:07:58;10.60;99.90
14401;DHT22;7285;50.894;5.462;2023-04-29T02:10:25;10.60;1.00
14401;DHT22;7285;50.894;5.462;2023-04-29T02:12:53;10.50;99.90
14401;DHT22;7285;50.894;5.462;2023-04-29T02:15:22;10.50;1.00
14401;DHT22;7285;50.894;5.462;2023-04-29T02:17:51;10.50;1.00
14401;DHT22;7285;50.894;5.462;2023-04-29T02:20:18;10.50;1.00
14401;DHT22;7285;50.894;5.462;2023-04-29T02:22:45;10.50;99.90
14401;DHT22;7285;50.894;5.462;2023-04-29T02:25:12;10.50;99.90
14401;DHT22;7285;50.894;5.462;2023-04-29T02:27:39;10.50;7.90
14401;DHT22;7285;50.894;5.462;2023-04-29T02:30:07;10.50;1.00
14401;DHT22;7285;50.894;5.462;2023-04-29T02:32:35;10.40;1.00
14401;DHT22;7285;50.894;5.462;2023-04-29T02:35:04;10.40;1.00
14401;DHT22;7285;50.894;5.462;2023-04-29T02:37:31;10.40;58.20
14401;DHT22;7285;50.894;5.462;2023-04-29T02:39:58;10.40;40.20
14401;DHT22;7285;50.894;5.462;2023-04-29T02:42:26;10.40;99.90
14401;DHT22;7285;50.894;5.462;2023-04-29T02:44:53;10.40;1.00
14401;DHT22;7285;50.894;5.462;2023-04-29T02:47:20;10.40;99.90
14401;DHT22;7285;50.894;5.462;2023-04-29T02:49:48;10.40;1.00
14401;DHT22;7285;50.894;5.462;2023-04-29T02:52:15;10.40;99.90
14401;DHT22;7285;50.894;5.462;2023-04-29T02:54:43;10.30;99.90
14401;DHT22;7285;50.894;5.462;2023-04-29T02:57:10;10.30;99.90
14401;DHT22;7285;50.894;5.462;2023-04-29T02:59:37;10.30;99.90
14401;DHT22;7285;50.894;5.462;2023-04-29T03:02:04;10.30;99.90
14401;DHT22;7285;50.894;5.462;2023-04-29T03:04:32;10.30;1.00
14401;DHT22;7285;50.894;5.462;2023-04-29T03:07:00;10.20;1.00
14401;DHT22;7285;50.894;5.462;2023-04-29T03:09:27;10.20;99.90
14401;DHT22;7285;50.894;5.462;2023-04-29T03:11:54;10.20;1.00
14401;DHT22;7285;50.894;5.462;2023-04-29T03:14:21;10.20;14.10
14401;DHT22;7285;50.894;5.462;2023-04-29T03:16:48;10.20;99.90
14401;DHT22;7285;50.894;5.462;2023-04-29T03:19:15;10.20;99.90
14401;DHT22;7285;50.894;5.462;2023-04-29T03:21:42;10.10;99.90
14401;DHT22;7285;50.894;5.462;2023-04-29T03:24:11;10.10;99.90
14401;DHT22;7285;50.894;5.462;2023-04-29T03:26:38;10.10;1.00
14401;DHT22;7285;50.894;5.462;2023-04-29T03:29:05;10.10;1.00
14401;DHT22;7285;50.894;5.462;2023-04-29T03:31:31;10.00;1.00
14401;DHT22;7285;50.894;5.462;2023-04-29T03:33:59;9.90;99.90
14401;DHT22;7285;50.894;5.462;2023-04-29T03:36:26;9.90;1.00
14401;DHT22;7285;50.894;5.462;2023-04-29T03:38:53;9.90;5.80
14401;DHT22;7285;50.894;5.462;2023-04-29T03:41:21;9.90;99.90
14401;DHT22;7285;50.894;5.462;2023-04-29T03:43:49;9.90;99.90
14401;DHT22;7285;50.894;5.462;2023-04-29T03:46:16;9.90;99.90
14401;DHT22;7285;50.894;5.462;2023-04-29T03:48:43;9.90;1.00
14401;DHT22;7285;50.894;5.462;2023-04-29T03:51:10;9.90;99.90
14401;DHT22;7285;50.894;5.462;2023-04-29T03:53:37;9.90;99.90
14401;DHT22;7285;50.894;5.462;2023-04-29T03:56:05;9.90;99.90
14401;DHT22;7285;50.894;5.462;2023-04-29T03:58:33;9.90;1.00
14401;DHT22;7285;50.894;5.462;2023-04-29T04:01:00;9.80;1.00
14401;DHT22;7285;50.894;5.462;2023-04-29T04:03:27;9.80;1.00
14401;DHT22;7285;50.894;5.462;2023-04-29T04:05:54;9.80;1.00
14401;DHT22;7285;50.894;5.462;2023-04-29T04:08:21;9.80;1.00
14401;DHT22;7285;50.894;5.462;2023-04-29T04:10:48;9.80;1.00
14401;DHT22;7285;50.894;5.462;2023-04-29T04:13:15;9.80;1.00
14401;DHT22;7285;50.894;5.462;2023-04-29T04:15:49;9.80;1.00
14401;DHT22;7285;50.894;5.462;2023-04-29T04:18:16;9.80;1.00
14401;DHT22;7285;50.894;5.462;2023-04-29T04:20:44;9.90;1.00
14401;DHT22;7285;50.894;5.462;2023-04-29T04:23:10;9.90;1.00
14401;DHT22;7285;50.894;5.462;2023-04-29T04:25:38;9.80;1.00
14401;DHT22;7285;50.894;5.462;2023-04-29T04:28:05;9.80;99.90
14401;DHT22;7285;50.894;5.462;2023-04-29T04:30:32;9.80;1.00
14401;DHT22;7285;50.894;5.462;2023-04-29T04:33:02;9.80;1.00
14401;DHT22;7285;50.894;5.462;2023-04-29T04:35:30;9.80;1.00
14401;DHT22;7285;50.894;5.462;2023-04-29T04:37:57;9.80;1.00
14401;DHT22;7285;50.894;5.462;2023-04-29T04:40:24;9.80;1.00
14401;DHT22;7285;50.894;5.462;2023-04-29T04:42:52;9.80;1.00
14401;DHT22;7285;50.894;5.462;2023-04-29T04:45:19;9.80;1.00
14401;DHT22;7285;50.894;5.462;2023-04-29T04:47:46;9.80;1.00
14401;DHT22;7285;50.894;5.462;2023-04-29T04:50:15;9.80;99.90
14401;DHT22;7285;50.894;5.462;2023-04-29T04:52:42;9.80;1.00
14401;DHT22;7285;50.894;5.462;2023-04-29T04:55:09;9.80;1.00
14401;DHT22;7285;50.894;5.462;2023-04-29T04:57:36;9.80;1.00
14401;DHT22;7285;50.894;5.462;2023-04-29T05:00:04;9.70;19.30
14401;DHT22;7285;50.894;5.462;2023-04-29T05:02:31;9.70;99.90
14401;DHT22;7285;50.894;5.462;2023-04-29T05:04:58;9.70;99.90
14401;DHT22;7285;50.894;5.462;2023-04-29T05:07:26;9.70;99.90
14401;DHT22;7285;50.894;5.462;2023-04-29T05:09:53;9.70;1.00
14401;DHT22;7285;50.894;5.462;2023-04-29T05:12:20;9.70;1.00
14401;DHT22;7285;50.894;5.462;2023-04-29T05:14:52;9.70;1.00
14401;DHT22;7285;50.894;5.462;2023-04-29T05:17:19;9.70;1.00
14401;DHT22;7285;50.894;5.462;2023-04-29T05:19:45;9.70;1.00
14401;DHT22;7285;50.894;5.462;2023-04-29T05:22:12;9.80;1.00
14401;DHT22;7285;50.894;5.462;2023-04-29T05:24:41;9.70;1.00
14401;DHT22;7285;50.894;5.462;2023-04-29T05:27:07;9.70;1.00
14401;DHT22;7285;50.894;5.462;2023-04-29T05:29:34;9.70;1.00
14401;DHT22;7285;50.894;5.462;2023-04-29T05:32:02;9.80;1.00
14401;DHT22;7285;50.894;5.462;2023-04-29T05:34:29;9.80;1.00
14401;DHT22;7285;50.894;5.462;2023-04-29T05:36:57;9.80;1.00
14401;DHT22;7285;50.894;5.462;2023-04-29T05:39:24;9.80;77.10
14401;DHT22;7285;50.894;5.462;2023-04-29T05:41:52;9.80;99.90
14401;DHT22;7285;50.894;5.462;2023-04-29T05:44:19;9.80;99.90
14401;DHT22;7285;50.894;5.462;2023-04-29T05:46:47;9.80;99.90
14401;DHT22;7285;50.894;5.462;2023-04-29T05:49:16;9.80;99.90
14401;DHT22;7285;50.894;5.462;2023-04-29T05:51:43;9.80;99.90
14401;DHT22;7285;50.894;5.462;2023-04-29T05:54:10;9.80;99.90
14401;DHT22;7285;50.894;5.462;2023-04-29T05:56:36;9.70;99.90
14401;DHT22;7285;50.894;5.462;2023-04-29T05:59:05;9.70;1.00
14401;DHT22;7285;50.894;5.462;2023-04-29T06:01:32;9.70;1.00
14401;DHT22;7285;50.894;5.462;2023-04-29T06:03:59;9.70;1.00
14401;DHT22;7285;50.894;5.462;2023-04-29T06:06:26;9.70;1.00
14401;DHT22;7285;50.894;5.462;2023-04-29T06:08:53;9.60;1.00
14401;DHT22;7285;50.894;5.462;2023-04-29T06:11:20;9.60;55.40
14401;DHT22;7285;50.894;5.462;2023-04-29T06:13:47;9.60;99.90
14401;DHT22;7285;50.894;5.462;2023-04-29T06:16:15;9.60;99.90
14401;DHT22;7285;50.894;5.462;2023-04-29T06:18:42;9.60;99.90
14401;DHT22;7285;50.894;5.462;2023-04-29T06:21:09;9.70;99.90
14401;DHT22;7285;50.894;5.462;2023-04-29T06:23:36;9.70;99.90
14401;DHT22;7285;50.894;5.462;2023-04-29T06:26:03;9.70;99.90
14401;DHT22;7285;50.894;5.462;2023-04-29T06:28:30;9.70;99.90
14401;DHT22;7285;50.894;5.462;2023-04-29T06:30:57;9.70;1.00
14401;DHT22;7285;50.894;5.462;2023-04-29T06:33:25;9.70;1.00
14401;DHT22;7285;50.894;5.462;2023-04-29T06:35:52;9.70;1.00
14401;DHT22;7285;50.894;5.462;2023-04-29T06:38:19;9.70;1.00
14401;DHT22;7285;50.894;5.462;2023-04-29T06:40:46;9.70;1.00
14401;DHT22;7285;50.894;5.462;2023-04-29T06:43:13;9.80;99.90
14401;DHT22;7285;50.894;5.462;2023-04-29T06:45:40;9.90;99.90
14401;DHT22;7285;50.894;5.462;2023-04-29T06:48:07;9.90;1.00
14401;DHT22;7285;50.894;5.462;2023-04-29T06:50:35;9.90;99.90
14401;DHT22;7285;50.894;5.462;2023-04-29T06:53:02;9.90;99.90
14401;DHT22;7285;50.894;5.462;2023-04-29T06:55:29;9.90;99.90
14401;DHT22;7285;50.894;5.462;2023-04-29T06:57:56;9.90;99.90
14401;DHT22;7285;50.894;5.462;2023-04-29T07:00:23;9.90;99.90
14401;DHT22;7285;50.894;5.462;2023-04-29T07:02:50;9.90;99.90
14401;DHT22;7285;50.894;5.462;2023-04-29T07:05:17;9.90;99.90
14401;DHT22;7285;50.894;5.462;2023-04-29T07:07:46;9.90;99.90
14401;DHT22;7285;50.894;5.462;2023-04-29T07:10:12;10.00;99.90
14401;DHT22;7285;50.894;5.462;2023-04-29T07:12:39;10.00;99.90
14401;DHT22;7285;50.894;5.462;2023-04-29T07:15:07;10.00;99.90
14401;DHT22;7285;50.894;5.462;2023-04-29T07:17:34;10.00;99.90
14401;DHT22;7285;50.894;5.462;2023-04-29T07:20:01;10.00;99.90
14401;DHT22;7285;50.894;5.462;2023-04-29T07:22:28;10.00;99.90
14401;DHT22;7285;50.894;5.462;2023-04-29T07:24:57;10.10;99.90
14401;DHT22;7285;50.894;5.462;2023-04-29T07:27:24;10.00;99.90
14401;DHT22;7285;50.894;5.462;2023-04-29T07:29:50;10.10;99.90
14401;DHT22;7285;50.894;5.462;2023-04-29T07:32:17;10.10;82.00
14401;DHT22;7285;50.894;5.462;2023-04-29T07:34:44;10.10;1.00
14401;DHT22;7285;50.894;5.462;2023-04-29T07:37:12;10.20;1.00
14401;DHT22;7285;50.894;5.462;2023-04-29T07:39:39;10.20;1.00
14401;DHT22;7285;50.894;5.462;2023-04-29T07:42:08;10.30;1.00
14401;DHT22;7285;50.894;5.462;2023-04-29T07:44:35;10.30;1.00
14401;DHT22;7285;50.894;5.462;2023-04-29T07:47:02;10.30;1.00
14401;DHT22;7285;50.894;5.462;2023-04-29T07:49:29;10.40;1.00
14401;DHT22;7285;50.894;5.462;2023-04-29T07:51:56;10.30;99.90
14401;DHT22;7285;50.894;5.462;2023-04-29T07:54:23;10.40;99.90
14401;DHT22;7285;50.894;5.462;2023-04-29T07:56:50;10.40;1.00
14401;DHT22;7285;50.894;5.462;2023-04-29T07:59:18;10.40;99.90
14401;DHT22;7285;50.894;5.462;2023-04-29T08:01:45;10.40;60.90
14401;DHT22;7285;50.894;5.462;2023-04-29T08:04:12;10.40;1.00
14401;DHT22;7285;50.894;5.462;2023-04-29T08:06:39;10.40;1.00
14401;DHT22;7285;50.894;5.462;2023-04-29T08:09:07;10.40;1.00
14401;DHT22;7285;50.894;5.462;2023-04-29T08:11:34;10.40;1.00
14401;DHT22;7285;50.894;5.462;2023-04-29T08:14:01;10.40;1.00
14401;DHT22;7285;50.894;5.462;2023-04-29T08:16:29;10.40;1.00
14401;DHT22;7285;50.894;5.462;2023-04-29T08:18:57;10.50;1.00
14401;DHT22;7285;50.894;5.462;2023-04-29T08:21:24;10.50;1.00
14401;DHT22;7285;50.894;5.462;2023-04-29T08:23:52;10.50;1.00
14401;DHT22;7285;50.894;5.462;2023-04-29T08:26:20;10.40;99.90
14401;DHT22;7285;50.894;5.462;2023-04-29T08:28:47;10.40;9.00
14401;DHT22;7285;50.894;5.462;2023-04-29T08:31:17;10.40;99.90
14401;DHT22;7285;50.894;5.462;2023-04-29T08:33:46;10.50;70.60
14401;DHT22;7285;50.894;5.462;2023-04-29T08:36:13;10.60;1.00
14401;DHT22;7285;50.894;5.462;2023-04-29T08:38:40;10.60;99.90
14401;DHT22;7285;50.894;5.462;2023-04-29T08:41:07;10.60;1.00
14401;DHT22;7285;50.894;5.462;2023-04-29T08:43:35;10.80;1.00
14401;DHT22;7285;50.894;5.462;2023-04-29T08:46:02;10.90;1.00
14401;DHT22;7285;50.894;5.462;2023-04-29T08:48:30;11.00;1.00
14401;DHT22;7285;50.894;5.462;2023-04-29T08:50:58;10.90;1.00
14401;DHT22;7285;50.894;5.462;2023-04-29T08:53:27;11.00;64.70
14401;DHT22;7285;50.894;5.462;2023-04-29T08:55:54;11.10;1.00
14401;DHT22;7285;50.894;5.462;2023-04-29T08:58:24;11.20;1.00
14401;DHT22;7285;50.894;5.462;2023-04-29T09:00:53;11.30;1.00
14401;DHT22;7285;50.894;5.462;2023-04-29T09:03:25;11.40;99.90
14401;DHT22;7285;50.894;5.462;2023-04-29T09:05:54;11.40;1.00
14401;DHT22;7285;50.894;5.462;2023-04-29T09:08:23;11.40;1.00
14401;DHT22;7285;50.894;5.462;2023-04-29T09:10:50;11.40;1.00
14401;DHT22;7285;50.894;5.462;2023-04-29T09:13:24;11.40;99.90
14401;DHT22;7285;50.894;5.462;2023-04-29T09:15:51;11.30;99.90
14401;DHT22;7285;50.894;5.462;2023-04-29T09:18:44;11.20;15.00
14401;DHT22;7285;50.894;5.462;2023-04-29T09:21:18;11.00;1.00
14401;DHT22;7285;50.894;5.462;2023-04-29T09:23:48;11.00;1.00
14401;DHT22;7285;50.894;5.462;2023-04-29T09:26:15;10.90;1.00
14401;DHT22;7285;50.894;5.462;2023-04-29T09:28:42;10.90;1.00
14401;DHT22;7285;50.894;5.462;2023-04-29T09:31:10;10.90;1.00
14401;DHT22;7285;50.894;5.462;2023-04-29T09:33:51;11.20;99.90
14401;DHT22;7285;50.894;5.462;2023-04-29T09:36:36;11.50;1.00
14401;DHT22;7285;50.894;5.462;2023-04-29T09:39:05;11.70;99.90
14401;DHT22;7285;50.894;5.462;2023-04-29T09:41:39;11.80;99.90
14401;DHT22;7285;50.894;5.462;2023-04-29T09:44:08;11.80;1.00
14401;DHT22;7285;50.894;5.462;2023-04-29T09:46:36;11.70;52.40
14401;DHT22;7285;50.894;5.462;2023-04-29T09:49:04;11.70;99.90
14401;DHT22;7285;50.894;5.462;2023-04-29T09:51:51;11.70;99.90
14401;DHT22;7285;50.894;5.462;2023-04-29T09:54:21;11.70;99.90
14401;DHT22;7285;50.894;5.462;2023-04-29T09:56:49;11.80;99.90
14401;DHT22;7285;50.894;5.462;2023-04-29T09:59:16;11.80;99.90
14401;DHT22;7285;50.894;5.462;2023-04-29T10:01:45;11.80;1.00
14401;DHT22;7285;50.894;5.462;2023-04-29T10:04:15;11.80;1.00
14401;DHT22;7285;50.894;5.462;2023-04-29T10:06:43;11.70;1.00
14401;DHT22;7285;50.894;5.462;2023-04-29T10:09:13;11.80;1.00
14401;DHT22;7285;50.894;5.462;2023-04-29T10:11:46;11.80;1.00
14401;DHT22;7285;50.894;5.462;2023-04-29T10:14:15;11.80;1.00
14401;DHT22;7285;50.894;5.462;2023-04-29T10:16:46;11.70;1.00
14401;DHT22;7285;50.894;5.462;2023-04-29T10:19:25;11.80;1.00
14401;DHT22;7285;50.894;5.462;2023-04-29T10:21:53;11.80;1.00
14401;DHT22;7285;50.894;5.462;2023-04-29T10:24:21;12.00;1.00
14401;DHT22;7285;50.894;5.462;2023-04-29T10:26:51;12.20;1.00
14401;DHT22;7285;50.894;5.462;2023-04-29T10:29:20;12.50;1.00
14401;DHT22;7285;50.894;5.462;2023-04-29T10:31:48;12.40;1.00
14401;DHT22;7285;50.894;5.462;2023-04-29T10:34:16;12.40;1.00
14401;DHT22;7285;50.894;5.462;2023-04-29T10:36:45;12.50;1.00
14401;DHT22;7285;50.894;5.462;2023-04-29T10:39:20;12.60;1.00
14401;DHT22;7285;50.894;5.462;2023-04-29T10:41:49;12.40;99.90
14401;DHT22;7285;50.894;5.462;2023-04-29T10:44:16;12.40;99.90
14401;DHT22;7285;50.894;5.462;2023-04-29T10:46:43;12.50;1.00
14401;DHT22;7285;50.894;5.462;2023-04-29T10:49:10;12.60;1.00
14401;DHT22;7285;50.894;5.462;2023-04-29T10:51:40;12.70;1.00
14401;DHT22;7285;50.894;5.462;2023-04-29T10:54:08;12.80;1.00
14401;DHT22;7285;50.894;5.462;2023-04-29T10:56:37;13.00;98.60
14401;DHT22;7285;50.894;5.462;2023-04-29T10:59:09;13.20;1.00
14401;DHT22;7285;50.894;5.462;2023-04-29T11:01:41;13.30;1.00
14401;DHT22;7285;50.894;5.462;2023-04-29T11:04:08;13.40;1.00
14401;DHT22;7285;50.894;5.462;2023-04-29T11:06:41;13.50;99.90
14401;DHT22;7285;50.894;5.462;2023-04-29T11:09:23;13.50;1.00
14401;DHT22;7285;50.894;5.462;2023-04-29T11:11:59;13.50;99.90
14401;DHT22;7285;50.894;5.462;2023-04-29T11:14:31;13.70;1.00
14401;DHT22;7285;50.894;5.462;2023-04-29T11:17:00;13.80;99.90
14401;DHT22;7285;50.894;5.462;2023-04-29T11:19:32;13.80;99.90
14401;DHT22;7285;50.894;5.462;2023-04-29T11:22:08;13.90;99.90
14401;DHT22;7285;50.894;5.462;2023-04-29T11:24:36;13.90;99.90
14401;DHT22;7285;50.894;5.462;2023-04-29T11:27:14;14.10;99.90
14401;DHT22;7285;50.894;5.462;2023-04-29T11:29:44;13.90;1.00
14401;DHT22;7285;50.894;5.462;2023-04-29T11:32:12;13.70;17.30
14401;DHT22;7285;50.894;5.462;2023-04-29T11:34:39;13.80;95.70
14401;DHT22;7285;50.894;5.462;2023-04-29T11:37:06;13.90;79.20
14401;DHT22;7285;50.894;5.462;2023-04-29T11:39:33;14.00;95.70
14401;DHT22;7285;50.894;5.462;2023-04-29T11:42:04;14.10;99.90
14401;DHT22;7285;50.894;5.462;2023-04-29T11:44:33;14.20;26.10
14401;DHT22;7285;50.894;5.462;2023-04-29T11:47:05;14.30;1.00
14401;DHT22;7285;50.894;5.462;2023-04-29T11:49:33;14.40;68.70
14401;DHT22;7285;50.894;5.462;2023-04-29T11:52:02;14.20;1.00
14401;DHT22;7285;50.894;5.462;2023-04-29T11:54:29;14.20;1.00
14401;DHT22;7285;50.894;5.462;2023-04-29T11:56:57;14.10;1.00
14401;DHT22;7285;50.894;5.462;2023-04-29T11:59:25;14.30;1.00
14401;DHT22;7285;50.894;5.462;2023-04-29T12:01:52;14.40;1.00
14401;DHT22;7285;50.894;5.462;2023-04-29T12:04:20;14.60;1.00
14401;DHT22;7285;50.894;5.462;2023-04-29T12:06:50;14.50;1.00
14401;DHT22;7285;50.894;5.462;2023-04-29T12:09:17;14.50;1.00
14401;DHT22;7285;50.894;5.462;2023-04-29T12:11:45;14.50;1.00
14401;DHT22;7285;50.894;5.462;2023-04-29T12:14:12;14.50;1.00
14401;DHT22;7285;50.894;5.462;2023-04-29T12:16:40;14.70;1.00
14401;DHT22;7285;50.894;5.462;2023-04-29T12:19:07;14.90;1.00
14401;DHT22;7285;50.894;5.462;2023-04-29T12:21:36;15.10;1.00
14401;DHT22;7285;50.894;5.462;2023-04-29T12:24:14;15.40;1.00
14401;DHT22;7285;50.894;5.462;2023-04-29T12:26:41;15.40;1.00
14401;DHT22;7285;50.894;5.462;2023-04-29T12:29:10;15.70;1.00
14401;DHT22;7285;50.894;5.462;2023-04-29T12:31:37;15.60;1.00
14401;DHT22;7285;50.894;5.462;2023-04-29T12:34:04;15.70;1.00
14401;DHT22;7285;50.894;5.462;2023-04-29T12:36:31;15.70;99.90
14401;DHT22;7285;50.894;5.462;2023-04-29T12:39:00;15.40;99.90
14401;DHT22;7285;50.894;5.462;2023-04-29T12:41:38;15.40;1.00
14401;DHT22;7285;50.894;5.462;2023-04-29T12:44:05;15.40;1.00
14401;DHT22;7285;50.894;5.462;2023-04-29T12:46:36;15.30;99.90
14401;DHT22;7285;50.894;5.462;2023-04-29T12:49:04;15.40;1.00
14401;DHT22;7285;50.894;5.462;2023-04-29T12:51:31;15.40;99.90
14401;DHT22;7285;50.894;5.462;2023-04-29T12:54:00;15.40;99.90
14401;DHT22;7285;50.894;5.462;2023-04-29T12:56:28;15.40;1.00
14401;DHT22;7285;50.894;5.462;2023-04-29T12:58:56;15.40;1.00
14401;DHT22;7285;50.894;5.462;2023-04-29T13:01:23;15.30;99.90
14401;DHT22;7285;50.894;5.462;2023-04-29T13:03:50;15.20;99.90
14401;DHT22;7285;50.894;5.462;2023-04-29T13:06:17;15.00;99.90
14401;DHT22;7285;50.894;5.462;2023-04-29T13:08:44;14.90;99.90
14401;DHT22;7285;50.894;5.462;2023-04-29T13:11:13;15.00;1.00
14401;DHT22;7285;50.894;5.462;2023-04-29T13:13:40;15.00;99.90
14401;DHT22;7285;50.894;5.462;2023-04-29T13:16:07;14.80;99.90
14401;DHT22;7285;50.894;5.462;2023-04-29T13:18:34;14.90;99.90
14401;DHT22;7285;50.894;5.462;2023-04-29T13:21:01;15.00;1.00
14401;DHT22;7285;50.894;5.462;2023-04-29T13:23:28;15.20;99.90
14401;DHT22;7285;50.894;5.462;2023-04-29T13:25:55;15.20;99.90
14401;DHT22;7285;50.894;5.462;2023-04-29T13:28:24;15.30;99.90
14401;DHT22;7285;50.894;5.462;2023-04-29T13:30:51;15.30;99.90
14401;DHT22;7285;50.894;5.462;2023-04-29T13:33:19;15.50;99.90
14401;DHT22;7285;50.894;5.462;2023-04-29T13:35:47;15.50;99.90
14401;DHT22;7285;50.894;5.462;2023-04-29T13:38:14;15.60;99.90
14401;DHT22;7285;50.894;5.462;2023-04-29T13:40:42;15.50;99.90
14401;DHT22;7285;50.894;5.462;2023-04-29T13:43:09;15.70;99.90
14401;DHT22;7285;50.894;5.462;2023-04-29T13:45:37;15.70;99.90
14401;DHT22;7285;50.894;5.462;2023-04-29T13:48:04;15.80;99.90
14401;DHT22;7285;50.894;5.462;2023-04-29T13:50:31;16.00;99.90
14401;DHT22;7285;50.894;5.462;2023-04-29T13:52:58;16.10;99.90
14401;DHT22;7285;50.894;5.462;2023-04-29T13:55:25;16.20;99.90
14401;DHT22;7285;50.894;5.462;2023-04-29T13:57:53;16.20;99.90
14401;DHT22;7285;50.894;5.462;2023-04-29T14:00:20;16.20;99.90
14401;DHT22;7285;50.894;5.462;2023-04-29T14:02:48;16.00;99.90
14401;DHT22;7285;50.894;5.462;2023-04-29T14:05:15;15.90;99.90
14401;DHT22;7285;50.894;5.462;2023-04-29T14:07:42;15.80;99.90
14401;DHT22;7285;50.894;5.462;2023-04-29T14:10:09;15.60;99.90
14401;DHT22;7285;50.894;5.462;2023-04-29T14:12:36;15.60;99.90
14401;DHT22;7285;50.894;5.462;2023-04-29T14:15:04;15.50;99.90
14401;DHT22;7285;50.894;5.462;2023-04-29T14:17:31;15.40;99.90
14401;DHT22;7285;50.894;5.462;2023-04-29T14:19:59;15.40;99.90
14401;DHT22;7285;50.894;5.462;2023-04-29T14:22:26;15.30;99.90
14401;DHT22;7285;50.894;5.462;2023-04-29T14:24:53;15.20;99.90
14401;DHT22;7285;50.894;5.462;2023-04-29T14:27:20;15.20;99.90
14401;DHT22;7285;50.894;5.462;2023-04-29T14:29:47;15.20;99.90
14401;DHT22;7285;50.894;5.462;2023-04-29T14:32:14;15.20;99.90
14401;DHT22;7285;50.894;5.462;2023-04-29T14:34:41;15.10;99.90
14401;DHT22;7285;50.894;5.462;2023-04-29T14:37:10;15.20;99.90
14401;DHT22;7285;50.894;5.462;2023-04-29T14:39:37;15.30;99.90
14401;DHT22;7285;50.894;5.462;2023-04-29T14:42:03;15.50;99.90
14401;DHT22;7285;50.894;5.462;2023-04-29T14:44:30;15.60;99.90
14401;DHT22;7285;50.894;5.462;2023-04-29T14:46:57;15.60;99.90
14401;DHT22;7285;50.894;5.462;2023-04-29T14:49:25;15.70;99.90
14401;DHT22;7285;50.894;5.462;2023-04-29T14:51:52;15.50;99.90
14401;DHT22;7285;50.894;5.462;2023-04-29T14:54:20;15.60;99.90
14401;DHT22;7285;50.894;5.462;2023-04-29T14:56:47;15.50;99.90
14401;DHT22;7285;50.894;5.462;2023-04-29T14:59:14;15.50;99.90
14401;DHT22;7285;50.894;5.462;2023-04-29T15:01:41;15.50;99.90
14401;DHT22;7285;50.894;5.462;2023-04-29T15:04:08;15.50;99.90
14401;DHT22;7285;50.894;5.462;2023-04-29T15:06:37;15.50;99.90
14401;DHT22;7285;50.894;5.462;2023-04-29T15:09:05;15.50;99.90
14401;DHT22;7285;50.894;5.462;2023-04-29T15:11:33;15.40;99.90
14401;DHT22;7285;50.894;5.462;2023-04-29T15:14:00;15.40;99.90
14401;DHT22;7285;50.894;5.462;2023-04-29T15:16:28;15.40;99.90
14401;DHT22;7285;50.894;5.462;2023-04-29T15:18:56;15.40;99.90
14401;DHT22;7285;50.894;5.462;2023-04-29T15:21:23;15.40;99.90
14401;DHT22;7285;50.894;5.462;2023-04-29T15:23:51;15.40;99.90
14401;DHT22;7285;50.894;5.462;2023-04-29T15:26:18;15.40;99.90
14401;DHT22;7285;50.894;5.462;2023-04-29T15:28:47;15.40;99.90
14401;DHT22;7285;50.894;5.462;2023-04-29T15:31:14;15.30;99.90
14401;DHT22;7285;50.894;5.462;2023-04-29T15:33:41;15.30;99.90
14401;DHT22;7285;50.894;5.462;2023-04-29T15:36:08;15.30;99.90
14401;DHT22;7285;50.894;5.462;2023-04-29T15:38:35;15.20;99.90
14401;DHT22;7285;50.894;5.462;2023-04-29T15:41:02;15.20;99.90
14401;DHT22;7285;50.894;5.462;2023-04-29T15:43:29;15.10;99.90
14401;DHT22;7285;50.894;5.462;2023-04-29T15:45:59;15.20;99.90
14401;DHT22;7285;50.894;5.462;2023-04-29T15:48:26;15.10;99.90
14401;DHT22;7285;50.894;5.462;2023-04-29T15:50:53;15.10;99.90
14401;DHT22;7285;50.894;5.462;2023-04-29T15:53:20;15.00;99.90
14401;DHT22;7285;50.894;5.462;2023-04-29T15:55:47;15.00;99.90
14401;DHT22;7285;50.894;5.462;2023-04-29T15:58:14;15.00;99.90
14401;DHT22;7285;50.894;5.462;2023-04-29T16:00:41;14.90;99.90
14401;DHT22;7285;50.894;5.462;2023-04-29T16:03:10;14.90;99.90